Jonesboro, AR (72404)

3:49 AM CDT on September 16, 2014 (GMT -0500)
Jonesboro Municipal | Change Station
CLOSE
Current Station
Airport
Location: Jonesboro,
Elevation: 262 ft
Nearby Weather Stations

Elev 262 ft 35.83 °N, 90.65 °W | Updated 56 minutes ago

Clear
Clear
67 °F
Feels Like 67 °F
N
5
Wind Variable Wind from West

Today
High -- | Low -- °F
--% Chance of Precip.
Yesterday
High -- | Low -- °F
Precip. -- in
6:46 AM 7:08 PM
Waning Gibbous, 47% visible
Pressure 30.09 in
Visibility 10.0 miles
Clouds Clear
Dew Point 65 °F
Humidity 93%
Rainfall 0.00 in
Snow Depth Not available.
UV 0 out of 12
Pollen 8.20 out of 12
Air Quality Not available.
Flu Activity Not available.
METAR KJBR 160753Z AUTO 28004KT 10SM CLR 19/18 A3010 RMK AO2 SLP189 T01940183

More Conditions Fewer Conditions

Pressure 30.09 in
Visibility 10.0 miles
Clouds Clear
Dew Point 65 °F
Humidity 93%
Rainfall 0.00 in
Snow Depth Not available.
UV 0 out of 12
Pollen 8.20 out of 12
Air Quality Not available.
Flu Activity Not available.
METAR KJBR 160753Z AUTO 28004KT 10SM CLR 19/18 A3010 RMK AO2 SLP189 T01940183

More Conditions Fewer Conditions

10-Day Weather Forecast

Almanac

Astronomy

Sep. 16, 2014 Rise Set
Actual Time 6:46 AM CDT 7:08 PM CDT
Civil Twilight 6:20 AM CDT 7:34 PM CDT
Nautical Twilight 5:50 AM CDT 8:04 PM CDT
Astronomical Twilight 5:19 AM CDT 8:34 PM CDT
Moon 12:04 AM CDT 2:24 PM CDT
Length of Visible Light 13h 13m
Length of Day
12h 22m
Tomorrow will be 2m 14s shorter.
Waning Gibbous, 47% of the Moon is Illuminated
Today
Waning Gibbous
Sep 24
New
Oct 1
First Quarter
Oct 8
Full
Oct 15
Last Quarter

Today's Extremes

State Highs State Lows

Community

WunderPhotos

Upload Photos

1,753,712 photos uploaded!

WunderBlogs® & News

Nearby

Snow Depth

Station Depth Elevation
No new snow has been reported.

Earthquake Activity

City Distance Mag. Time & Date
No recent earthquake activity has been reported nearby.
Minimum magnitude displayed is 2.5.

Coastal Water Temperatures

Place Temperature
No Stations Reporting

Nearby Weather Stations